createdAt,value
2023-03-20T00:01:53.129Z,100796.31
2023-03-20T00:04:19.569Z,100794.19
2023-03-20T00:06:46.053Z,100797.47
2023-03-20T00:09:13.574Z,100801.31
2023-03-20T00:11:48.223Z,100802.94
2023-03-20T00:14:16.876Z,100803.38
2023-03-20T00:16:46.254Z,100811.66
2023-03-20T00:19:17.573Z,100808.88
2023-03-20T00:21:47.814Z,100806.66
2023-03-20T00:24:15.576Z,100812.75
2023-03-20T00:26:43.746Z,100801.19
2023-03-20T00:29:21.658Z,100801.84
2023-03-20T00:31:48.953Z,100802.41
2023-03-20T00:34:20.906Z,100796.19
2023-03-20T00:36:47.403Z,100798.22
2023-03-20T00:39:13.927Z,100791.94
2023-03-20T00:42:03.927Z,100800.47
2023-03-20T00:44:39.001Z,100791.94
2023-03-20T00:47:19.640Z,100797.16
2023-03-20T00:49:48.142Z,100795.38
2023-03-20T00:52:15.996Z,100796.22
2023-03-20T00:54:42.416Z,100793.88
2023-03-20T00:57:17.959Z,100799.50
2023-03-20T01:00:06.888Z,100796.03
2023-03-20T01:02:34.563Z,100801.91
2023-03-20T01:05:02.134Z,100807.06
2023-03-20T01:07:28.750Z,100806.00
2023-03-20T01:09:55.422Z,100811.06
2023-03-20T01:12:22.618Z,100806.81
2023-03-20T01:14:54.737Z,100805.69
2023-03-20T01:17:23.052Z,100805.16
2023-03-20T01:19:49.879Z,100810.09
2023-03-20T01:22:18.090Z,100808.91
2023-03-20T01:24:45.465Z,100807.28
2023-03-20T01:27:14.960Z,100806.69
2023-03-20T01:29:42.088Z,100806.25
2023-03-20T01:32:14.662Z,100808.78
2023-03-20T01:34:41.070Z,100804.66
2023-03-20T01:37:13.764Z,100806.78
2023-03-20T01:39:40.176Z,100807.84
2023-03-20T01:42:07.229Z,100816.75
2023-03-20T01:44:36.183Z,100820.00
2023-03-20T01:47:14.644Z,100824.25
2023-03-20T01:50:18.005Z,100821.44
2023-03-20T01:52:45.447Z,100815.31
2023-03-20T01:55:12.102Z,100824.63
2023-03-20T01:57:39.362Z,100829.47
2023-03-20T02:00:10.265Z,100822.94
2023-03-20T02:02:38.048Z,100824.50
2023-03-20T02:05:08.772Z,100833.94
2023-03-20T02:07:36.622Z,100830.38
2023-03-20T02:10:05.866Z,100837.38
2023-03-20T02:12:33.451Z,100836.06
2023-03-20T02:15:00.723Z,100847.44
2023-03-20T02:17:27.226Z,100850.13
2023-03-20T02:20:08.858Z,100853.09
2023-03-20T02:22:41.177Z,100844.63
2023-03-20T02:25:35.162Z,100866.06
2023-03-20T02:28:07.590Z,100861.97
2023-03-20T02:30:42.812Z,100869.53
2023-03-20T02:33:34.284Z,100864.09
2023-03-20T02:36:12.936Z,100870.66
2023-03-20T02:38:58.294Z,100877.69
2023-03-20T02:41:39.779Z,100874.81
2023-03-20T02:44:32.526Z,100883.41
2023-03-20T02:47:03.903Z,100886.09
2023-03-20T02:49:51.965Z,100878.91
2023-03-20T02:52:46.521Z,100879.97
2023-03-20T02:55:31.706Z,100883.38
2023-03-20T02:58:09.163Z,100886.84
2023-03-20T03:00:47.454Z,100894.19
2023-03-20T03:03:29.286Z,100893.22
2023-03-20T03:06:16.566Z,100888.53
2023-03-20T03:08:48.291Z,100891.91
2023-03-20T03:11:14.778Z,100899.63
2023-03-20T03:13:52.998Z,100894.88
2023-03-20T03:16:36.572Z,100896.16
2023-03-20T03:19:08.076Z,100906.28
2023-03-20T03:21:38.138Z,100899.38
2023-03-20T03:24:05.372Z,100903.03
2023-03-20T03:26:36.237Z,100899.25
2023-03-20T03:29:12.146Z,100897.63
2023-03-20T03:31:38.854Z,100897.47
2023-03-20T03:34:06.437Z,100897.56
2023-03-20T03:36:58.559Z,100903.88
2023-03-20T03:39:37.822Z,100901.09
2023-03-20T03:42:12.665Z,100907.16
2023-03-20T03:44:47.005Z,100897.69
2023-03-20T03:47:21.519Z,100898.41
2023-03-20T03:49:57.764Z,100906.63
2023-03-20T03:52:26.059Z,100906.78
2023-03-20T03:55:00.220Z,100905.44
2023-03-20T03:57:47.856Z,100905.56
2023-03-20T04:00:18.883Z,100891.31
2023-03-20T04:02:49.757Z,100890.28
2023-03-20T04:05:19.114Z,100895.50
2023-03-20T04:07:46.658Z,100888.63
2023-03-20T04:10:14.675Z,100887.56
2023-03-20T04:12:43.991Z,100899.06
2023-03-20T04:15:12.548Z,100889.41
2023-03-20T04:17:39.592Z,100891.91
2023-03-20T04:20:07.701Z,100891.69
2023-03-20T04:22:34.978Z,100891.31
2023-03-20T04:25:03.865Z,100893.97
2023-03-20T04:27:30.313Z,100888.06
2023-03-20T04:29:56.715Z,100894.66
2023-03-20T04:32:23.168Z,100898.16
2023-03-20T04:34:49.786Z,100898.53
2023-03-20T04:37:16.209Z,100901.16
2023-03-20T04:39:42.976Z,100900.69
2023-03-20T04:42:09.681Z,100902.19
2023-03-20T04:44:36.200Z,100896.78
2023-03-20T04:47:02.695Z,100897.06
2023-03-20T04:49:29.226Z,100897.38
2023-03-20T04:51:56.234Z,100897.50
2023-03-20T04:54:22.694Z,100900.94
2023-03-20T04:56:49.241Z,100902.28
2023-03-20T04:59:15.763Z,100895.88
2023-03-20T05:01:42.348Z,100895.50
2023-03-20T05:04:08.871Z,100891.00
2023-03-20T05:06:35.836Z,100890.41
2023-03-20T05:09:02.443Z,100880.06
2023-03-20T05:11:29.115Z,100874.91
2023-03-20T05:13:55.729Z,100877.13
2023-03-20T05:16:22.219Z,100883.97
2023-03-20T05:18:48.742Z,100890.53
2023-03-20T05:21:15.507Z,100882.38
2023-03-20T05:23:41.956Z,100885.63
2023-03-20T05:26:08.464Z,100884.56
2023-03-20T05:28:35.403Z,100890.66
2023-03-20T05:31:01.854Z,100885.16
2023-03-20T05:33:28.354Z,100886.47
2023-03-20T05:35:54.841Z,100894.91
2023-03-20T05:38:22.739Z,100883.38
2023-03-20T05:40:50.264Z,100893.34
2023-03-20T05:43:16.917Z,100899.44
2023-03-20T05:45:43.648Z,100897.56
2023-03-20T05:48:10.223Z,100884.19
2023-03-20T05:50:36.623Z,100882.22
2023-03-20T05:53:03.106Z,100886.00
2023-03-20T05:55:29.539Z,100887.19
2023-03-20T05:57:56.293Z,100876.28
2023-03-20T06:00:23.375Z,100886.03
2023-03-20T06:02:49.965Z,100888.81
2023-03-20T06:05:16.546Z,100889.59
2023-03-20T06:07:43.700Z,100891.56
2023-03-20T06:10:10.825Z,100888.53
2023-03-20T06:12:37.258Z,100881.22
2023-03-20T06:15:04.030Z,100880.34
2023-03-20T06:17:30.441Z,100890.91
2023-03-20T06:19:56.908Z,100889.25
2023-03-20T06:22:23.325Z,100897.59
2023-03-20T06:24:49.744Z,100890.81
2023-03-20T06:27:16.967Z,100899.56
2023-03-20T06:29:43.445Z,100899.09
2023-03-20T06:32:12.180Z,100897.81
2023-03-20T06:34:38.692Z,100901.63
2023-03-20T06:37:05.401Z,100895.75
2023-03-20T06:39:32.228Z,100902.75
2023-03-20T06:41:58.690Z,100913.31
2023-03-20T06:44:25.460Z,100909.13
2023-03-20T06:46:51.924Z,100908.81
2023-03-20T06:49:18.735Z,100913.50
2023-03-20T06:51:47.540Z,100915.19
2023-03-20T06:54:14.198Z,100910.09
2023-03-20T06:56:40.686Z,100918.91
2023-03-20T06:59:07.480Z,100910.63
2023-03-20T07:01:33.959Z,100918.44
2023-03-20T07:04:01.210Z,100915.88
2023-03-20T07:06:27.987Z,100916.81
2023-03-20T07:08:54.754Z,100922.16
2023-03-20T07:11:21.264Z,100922.75
2023-03-20T07:13:49.851Z,100917.13
2023-03-20T07:16:17.155Z,100921.31
2023-03-20T07:18:43.615Z,100924.22
2023-03-20T07:21:17.670Z,100931.03
2023-03-20T07:23:44.137Z,100932.13
2023-03-20T07:26:10.677Z,100936.09
2023-03-20T07:28:37.128Z,100945.56
2023-03-20T07:31:03.742Z,100941.47
2023-03-20T07:33:30.375Z,100949.72
2023-03-20T07:35:56.851Z,100951.97
2023-03-20T07:38:23.340Z,100946.97
2023-03-20T07:40:50.100Z,100941.66
2023-03-20T07:43:17.253Z,100945.16
2023-03-20T07:45:43.808Z,100944.09
2023-03-20T07:48:10.359Z,100940.00
2023-03-20T07:50:36.984Z,100947.72
2023-03-20T07:53:03.481Z,100952.47
2023-03-20T07:55:29.957Z,100945.69
2023-03-20T07:57:56.464Z,100944.41
2023-03-20T08:00:22.984Z,100949.47
2023-03-20T08:02:49.819Z,100944.13
2023-03-20T08:05:16.478Z,100950.13
2023-03-20T08:07:43.134Z,100950.25
2023-03-20T08:10:10.547Z,100943.81
2023-03-20T08:12:36.967Z,100945.44
2023-03-20T08:15:03.818Z,100937.47
2023-03-20T08:17:30.486Z,100925.19
2023-03-20T08:19:56.972Z,100926.38
2023-03-20T08:22:23.438Z,100934.41
2023-03-20T08:24:49.850Z,100934.00
2023-03-20T08:27:17.180Z,100936.88
2023-03-20T08:29:43.622Z,100936.34
2023-03-20T08:32:10.178Z,100946.88
2023-03-20T08:34:36.591Z,100942.16
2023-03-20T08:37:05.007Z,100949.00
2023-03-20T08:39:33.061Z,100952.97
2023-03-20T08:42:00.947Z,100957.16
2023-03-20T08:44:27.684Z,100951.19
2023-03-20T08:46:55.069Z,100953.91
2023-03-20T08:49:21.719Z,100951.72
2023-03-20T08:51:48.227Z,100960.59
2023-03-20T08:54:18.170Z,100952.25
2023-03-20T08:56:46.287Z,100957.88
2023-03-20T08:59:13.201Z,100964.50
2023-03-20T09:01:49.244Z,100962.78
2023-03-20T09:04:16.794Z,100959.50
2023-03-20T09:06:43.359Z,100953.13
2023-03-20T09:09:09.946Z,100953.50
2023-03-20T09:11:37.296Z,100957.13
2023-03-20T09:14:03.818Z,100956.72
2023-03-20T09:16:30.323Z,100955.81
2023-03-20T09:18:56.823Z,100969.38
2023-03-20T09:21:23.315Z,100969.91
2023-03-20T09:23:49.753Z,100967.66
2023-03-20T09:26:16.826Z,100986.31
2023-03-20T09:28:43.313Z,100980.97
2023-03-20T09:31:09.784Z,100976.53
2023-03-20T09:33:36.220Z,100978.09
2023-03-20T09:36:02.733Z,100974.81
2023-03-20T09:38:29.197Z,100973.09
2023-03-20T09:41:03.862Z,100984.69
2023-03-20T09:44:21.175Z,100980.97
2023-03-20T09:47:19.869Z,100984.69
2023-03-20T09:50:04.830Z,100987.66
2023-03-20T09:52:53.350Z,100991.88
2023-03-20T09:55:23.693Z,100990.09
2023-03-20T09:57:56.356Z,100983.72
2023-03-20T10:00:28.290Z,100981.22
2023-03-20T10:03:03.209Z,100983.97
2023-03-20T10:05:39.444Z,100974.97
2023-03-20T10:08:14.941Z,100982.13
2023-03-20T10:11:15.746Z,100982.50
2023-03-20T10:13:49.008Z,100986.22
2023-03-20T10:16:38.800Z,100989.63
2023-03-20T10:19:21.494Z,100985.53
2023-03-20T10:21:53.860Z,100987.59
2023-03-20T10:24:31.895Z,100998.72
2023-03-20T10:27:06.856Z,101002.38
2023-03-20T10:30:03.559Z,100991.66
2023-03-20T10:32:37.557Z,100985.50
2023-03-20T10:35:28.228Z,100992.63
2023-03-20T10:37:54.558Z,100992.47
2023-03-20T10:40:27.454Z,100986.66
2023-03-20T10:42:58.612Z,100992.41
2023-03-20T10:45:48.686Z,100990.00
2023-03-20T10:48:21.409Z,100983.88
2023-03-20T10:50:53.586Z,100984.13
2023-03-20T10:53:54.117Z,100981.06
2023-03-20T10:56:26.584Z,100984.69
2023-03-20T10:59:01.180Z,100987.16
2023-03-20T11:01:27.803Z,100980.03
2023-03-20T11:03:55.805Z,100979.69
2023-03-20T11:06:32.173Z,100978.50
2023-03-20T11:09:11.769Z,100974.19
2023-03-20T11:11:44.168Z,100972.72
2023-03-20T11:14:18.774Z,100979.19
2023-03-20T11:16:49.849Z,100968.13
2023-03-20T11:19:17.554Z,100968.41
2023-03-20T11:21:53.063Z,100970.34
2023-03-20T11:24:42.194Z,100962.81
2023-03-20T11:27:12.521Z,100955.06
2023-03-20T11:29:41.508Z,100962.41
2023-03-20T11:32:19.850Z,100950.84
2023-03-20T11:34:46.444Z,100953.00
2023-03-20T11:37:23.888Z,100951.44
2023-03-20T11:40:12.692Z,100947.22
2023-03-20T11:42:39.480Z,100943.53
2023-03-20T11:45:16.963Z,100940.81
2023-03-20T11:47:48.880Z,100939.47
2023-03-20T11:50:26.885Z,100938.34
2023-03-20T11:52:54.274Z,100935.78
2023-03-20T11:55:32.582Z,100937.19
2023-03-20T11:58:01.674Z,100928.69
2023-03-20T12:00:40.367Z,100929.31
2023-03-20T12:03:44.106Z,100925.97
2023-03-20T12:06:16.764Z,100925.28
2023-03-20T12:08:49.905Z,100916.19
2023-03-20T12:11:28.862Z,100916.97
2023-03-20T12:14:00.378Z,100920.41
2023-03-20T12:16:27.761Z,100916.63
2023-03-20T12:18:59.880Z,100915.97
2023-03-20T12:22:08.525Z,100913.28
2023-03-20T12:24:49.402Z,100913.03
2023-03-20T12:27:29.590Z,100909.19
2023-03-20T12:30:00.698Z,100908.56
2023-03-20T12:32:51.550Z,100892.03
2023-03-20T12:35:31.189Z,100897.13
2023-03-20T12:37:58.845Z,100895.41
2023-03-20T12:40:38.201Z,100896.47
2023-03-20T12:43:24.288Z,100896.31
2023-03-20T12:46:46.343Z,100887.78
2023-03-20T12:49:33.649Z,100897.34
2023-03-20T12:52:13.599Z,100890.13
2023-03-20T12:54:56.577Z,100891.22
2023-03-20T12:57:34.721Z,100894.59
2023-03-20T13:00:01.104Z,100896.53
2023-03-20T13:02:39.185Z,100897.25
2023-03-20T13:05:30.059Z,100900.03
2023-03-20T13:08:33.945Z,100904.09
2023-03-20T13:11:18.564Z,100896.47
2023-03-20T13:13:58.683Z,100885.38
2023-03-20T13:16:54.400Z,100884.78
2023-03-20T13:19:36.166Z,100877.47
2023-03-20T13:22:13.896Z,100885.66
2023-03-20T13:24:48.007Z,100878.34
2023-03-20T13:27:29.804Z,100873.00
2023-03-20T13:30:26.735Z,100864.53
2023-03-20T13:33:25.690Z,100863.13
2023-03-20T13:36:07.072Z,100862.81
2023-03-20T13:38:37.711Z,100872.09
2023-03-20T13:41:09.734Z,100863.06
2023-03-20T13:43:48.539Z,100869.06
2023-03-20T13:46:23.052Z,100870.88
2023-03-20T13:48:51.327Z,100870.75
2023-03-20T13:51:30.587Z,100866.06
2023-03-20T13:54:08.911Z,100864.88
2023-03-20T13:56:48.949Z,100845.88
2023-03-20T13:59:33.370Z,100855.78
2023-03-20T14:02:31.034Z,100859.31
2023-03-20T14:05:07.611Z,100846.34
2023-03-20T14:07:37.305Z,100851.53
2023-03-20T14:10:24.197Z,100852.38
2023-03-20T14:12:55.735Z,100838.53
2023-03-20T14:15:26.966Z,100846.75
2023-03-20T14:17:53.540Z,100843.44
2023-03-20T14:20:33.390Z,100842.88
2023-03-20T14:23:00.365Z,100843.66
2023-03-20T14:25:33.442Z,100846.34
2023-03-20T14:28:07.415Z,100846.69
2023-03-20T14:30:42.582Z,100838.34
2023-03-20T14:33:15.357Z,100841.97
2023-03-20T14:36:11.887Z,100838.03
2023-03-20T14:38:54.275Z,100834.41
2023-03-20T14:41:28.708Z,100835.03
2023-03-20T14:44:16.939Z,100838.03
2023-03-20T14:47:31.672Z,100845.31
2023-03-20T14:50:09.959Z,100838.47
2023-03-20T14:53:11.215Z,100835.44
2023-03-20T14:55:51.279Z,100849.44
2023-03-20T14:58:45.870Z,100853.31
2023-03-20T15:01:19.707Z,100845.50
2023-03-20T15:04:06.674Z,100847.28
2023-03-20T15:06:35.383Z,100843.00
2023-03-20T15:09:09.236Z,100846.31
2023-03-20T15:11:36.311Z,100846.94
2023-03-20T15:14:06.485Z,100841.78
2023-03-20T15:16:35.927Z,100845.00
2023-03-20T15:19:15.370Z,100840.34
2023-03-20T15:21:44.376Z,100840.50
2023-03-20T15:24:19.686Z,100840.91
2023-03-20T15:26:46.361Z,100841.06
2023-03-20T15:29:18.622Z,100840.78
2023-03-20T15:31:45.677Z,100844.53
2023-03-20T15:34:21.082Z,100844.75
2023-03-20T15:36:48.484Z,100839.75
2023-03-20T15:39:15.345Z,100841.34
2023-03-20T15:41:47.174Z,100832.34
2023-03-20T15:44:36.499Z,100830.28
2023-03-20T15:47:20.431Z,100832.78
2023-03-20T15:50:00.059Z,100833.28
2023-03-20T15:52:37.031Z,100831.97
2023-03-20T15:55:07.407Z,100830.75
2023-03-20T15:57:40.484Z,100837.00
2023-03-20T16:00:13.459Z,100840.31
2023-03-20T16:02:40.510Z,100837.94
2023-03-20T16:05:13.307Z,100834.72
2023-03-20T16:07:40.541Z,100842.31
2023-03-20T16:10:19.755Z,100831.31
2023-03-20T16:12:51.400Z,100839.88
2023-03-20T16:15:19.279Z,100835.69
2023-03-20T16:17:46.467Z,100836.84
2023-03-20T16:20:15.538Z,100838.13
2023-03-20T16:22:42.730Z,100829.22
2023-03-20T16:25:13.271Z,100839.66
2023-03-20T16:27:41.336Z,100833.66
2023-03-20T16:30:22.443Z,100835.88
2023-03-20T16:32:54.977Z,100831.84
2023-03-20T16:35:27.001Z,100831.63
2023-03-20T16:37:56.589Z,100835.50
2023-03-20T16:40:36.042Z,100836.66
2023-03-20T16:43:10.900Z,100833.31
2023-03-20T16:45:38.315Z,100833.84
2023-03-20T16:48:17.024Z,100837.28
2023-03-20T16:50:45.380Z,100827.84
2023-03-20T16:53:16.802Z,100840.56
2023-03-20T16:55:46.190Z,100830.31
2023-03-20T16:58:23.381Z,100843.06
2023-03-20T17:00:57.650Z,100830.38
2023-03-20T17:03:45.926Z,100833.72
2023-03-20T17:06:25.529Z,100824.88
2023-03-20T17:08:53.576Z,100831.19
2023-03-20T17:11:36.435Z,100834.44
2023-03-20T17:14:04.314Z,100836.41
2023-03-20T17:16:32.929Z,100841.22
2023-03-20T17:19:04.364Z,100834.56
2023-03-20T17:21:31.671Z,100843.44
2023-03-20T17:23:58.189Z,100840.72
2023-03-20T17:26:25.302Z,100834.94
2023-03-20T17:28:51.799Z,100839.28
2023-03-20T17:31:18.463Z,100837.09
2023-03-20T17:33:45.968Z,100838.97
2023-03-20T17:36:17.628Z,100841.94
2023-03-20T17:38:44.504Z,100838.91
2023-03-20T17:41:19.777Z,100838.59
2023-03-20T17:43:47.111Z,100851.81
2023-03-20T17:46:28.922Z,100850.53
2023-03-20T17:48:59.166Z,100846.44
2023-03-20T17:51:25.731Z,100850.00
2023-03-20T17:53:55.239Z,100849.75
2023-03-20T17:56:22.438Z,100857.75
2023-03-20T17:58:49.007Z,100859.16
2023-03-20T18:01:15.897Z,100860.19
2023-03-20T18:03:43.000Z,100867.38
2023-03-20T18:06:20.346Z,100867.22
2023-03-20T18:08:46.848Z,100869.53
2023-03-20T18:11:13.310Z,100861.59
2023-03-20T18:13:39.811Z,100861.06
2023-03-20T18:16:06.495Z,100853.84
2023-03-20T18:18:32.939Z,100856.31
2023-03-20T18:20:59.400Z,100846.19
2023-03-20T18:23:25.835Z,100842.31
2023-03-20T18:25:52.285Z,100838.84
2023-03-20T18:28:22.612Z,100846.91
2023-03-20T18:30:49.809Z,100838.72
2023-03-20T18:33:17.114Z,100829.72
2023-03-20T18:35:44.008Z,100837.75
2023-03-20T18:38:13.452Z,100847.31
2023-03-20T18:40:40.467Z,100837.28
2023-03-20T18:43:06.938Z,100856.38
2023-03-20T18:45:33.506Z,100857.72
2023-03-20T18:48:03.586Z,100866.50
2023-03-20T18:50:38.415Z,100864.25
2023-03-20T18:53:06.559Z,100857.50
2023-03-20T18:55:33.239Z,100846.16
2023-03-20T18:58:03.479Z,100848.16
2023-03-20T19:00:35.973Z,100854.34
2023-03-20T19:03:02.642Z,100848.28
2023-03-20T19:05:29.832Z,100846.78
2023-03-20T19:07:56.659Z,100854.88
2023-03-20T19:10:35.931Z,100852.31
2023-03-20T19:13:04.672Z,100861.19
2023-03-20T19:15:36.674Z,100857.00
2023-03-20T19:18:15.561Z,100854.59
2023-03-20T19:20:44.542Z,100855.78
2023-03-20T19:23:13.414Z,100864.97
2023-03-20T19:25:41.587Z,100859.59
2023-03-20T19:30:54.107Z,100859.91
2023-03-20T19:33:20.965Z,100861.50
2023-03-20T19:36:02.305Z,100868.72
2023-03-20T19:38:35.386Z,100860.94
2023-03-20T19:41:03.679Z,100868.25
2023-03-20T19:43:30.246Z,100863.09
2023-03-20T19:45:59.268Z,100860.06
2023-03-20T19:48:46.450Z,100864.94
2023-03-20T19:51:17.812Z,100866.97
2023-03-20T19:53:44.448Z,100858.84
2023-03-20T19:56:12.027Z,100853.03
2023-03-20T19:58:39.836Z,100850.75
2023-03-20T20:01:14.867Z,100859.00
2023-03-20T20:03:41.856Z,100856.75
2023-03-20T20:06:08.443Z,100863.66
2023-03-20T20:08:47.411Z,100855.19
2023-03-20T20:11:15.464Z,100857.13
2023-03-20T20:14:01.905Z,100858.59
2023-03-20T20:16:29.408Z,100855.97
2023-03-20T20:18:55.944Z,100860.56
2023-03-20T20:24:08.836Z,100862.47
2023-03-20T20:26:40.484Z,100864.28
2023-03-20T20:29:14.355Z,100861.94
2023-03-20T20:31:40.914Z,100864.59
2023-03-20T20:35:07.256Z,100859.38
2023-03-20T20:39:40.795Z,100873.94
2023-03-20T20:42:07.658Z,100873.03
2023-03-20T20:44:34.641Z,100864.84
2023-03-20T20:47:01.169Z,100863.50
2023-03-20T20:49:27.654Z,100864.53
2023-03-20T20:51:54.087Z,100861.84
2023-03-20T20:54:20.924Z,100860.69
2023-03-20T20:56:47.406Z,100858.50
2023-03-20T20:59:13.869Z,100858.84
2023-03-20T21:01:40.434Z,100864.75
2023-03-20T21:04:06.930Z,100861.72
2023-03-20T21:07:05.604Z,100861.63
2023-03-20T21:09:19.776Z,100866.97
2023-03-20T21:11:46.662Z,100867.25
2023-03-20T21:14:13.980Z,100862.56
2023-03-20T21:16:40.371Z,100862.47
2023-03-20T21:19:07.645Z,100868.72
2023-03-20T21:21:35.060Z,100868.56
2023-03-20T21:24:02.052Z,100860.25
2023-03-20T21:26:28.517Z,100857.34
2023-03-20T21:28:55.633Z,100862.22
2023-03-20T21:31:30.936Z,100868.38
2023-03-20T21:33:58.066Z,100858.94
2023-03-20T21:36:24.857Z,100865.50
2023-03-20T21:39:07.903Z,100867.06
2023-03-20T21:41:37.814Z,100863.34
2023-03-20T21:44:05.807Z,100865.22
2023-03-20T22:03:33.815Z,100872.41
2023-03-20T22:15:14.895Z,100877.22
2023-03-20T22:20:46.863Z,100876.03
2023-03-20T22:26:25.244Z,100885.31
2023-03-20T22:31:50.796Z,100884.19
2023-03-20T22:37:35.420Z,100881.78
2023-03-20T22:42:49.384Z,100886.47
2023-03-20T22:45:09.619Z,100877.69
2023-03-20T22:47:36.654Z,100872.97
2023-03-20T22:50:03.884Z,100884.91
2023-03-20T22:52:49.625Z,100870.13
2023-03-20T22:55:20.589Z,100872.66
2023-03-20T22:58:03.731Z,100872.56
2023-03-20T23:00:33.168Z,100875.75
2023-03-20T23:03:13.841Z,100872.97
2023-03-20T23:05:44.155Z,100873.66
2023-03-20T23:08:12.014Z,100868.13
2023-03-20T23:10:46.197Z,100876.00
2023-03-20T23:13:13.392Z,100871.19
2023-03-20T23:15:40.120Z,100876.72
2023-03-20T23:18:07.176Z,100878.78
2023-03-20T23:20:33.861Z,100869.47
2023-03-20T23:23:00.514Z,100864.41
2023-03-20T23:25:38.393Z,100861.09
2023-03-20T23:28:07.001Z,100857.31
2023-03-20T23:30:44.372Z,100861.00
2023-03-20T23:33:14.824Z,100860.47
2023-03-20T23:35:41.261Z,100859.00
2023-03-20T23:38:07.803Z,100851.59
2023-03-20T23:40:34.312Z,100852.09
2023-03-20T23:43:00.892Z,100846.19
2023-03-20T23:45:27.330Z,100847.09
2023-03-20T23:47:53.778Z,100848.34
2023-03-20T23:50:30.105Z,100848.09
2023-03-20T23:53:09.506Z,100844.63
2023-03-20T23:55:40.301Z,100842.50
2023-03-20T23:58:07.202Z,100838.13
